Patriarch — WBN3014 — position and weather

sailwx.info

Track history (hours):
 
Tides and Currents Weather Stations Pressure Air Temp Water Temp Dewpoint Dewpoint Depression Visibility Wind Speed Wind Dir Waves Ship Positions

Patriarch

Owner: CROWLEY PUERTO RICO SERVICES INC, Seattle, WA. More information available from US FCC via Universal Licensing System and Coast Guard Vessel Documentation Center.

Last reported at 2015-Jul-27 08:10 UTC. Time now 2015-Jul-31 01:01 UTC.
Position N 38°27' W 074°43'.

Length 46 m; draft 5 m.

Type: Towing. MMSI: 366766940.

Date/timePositionNaut miles runAvg speedWind from/ knotsBaromVisibWave heightAir tempDewpointWater temp
2015-Jul-27 08:10N 38°27' W 074°43'6 9.6
2015-Jul-27 07:33N 38°31' W 074°48'10 9.7
2015-Jul-27 06:33N 38°39' W 074°55'1010.0
2015-Jul-27 05:33N 38°47' W 075°03'9 9.5
2015-Jul-27 04:33N 38°56' W 075°06'1110.4
2015-Jul-27 03:32N 39°06' W 075°12'1110.9
2015-Jul-27 02:33N 39°15' W 075°19'1010.3
2015-Jul-27 01:34N 39°22' W 075°28'8 8.4
2015-Jul-27 00:33N 39°30' W 075°34'8 7.5
2015-Jul-26 23:33N 39°37' W 075°35'7 7.3
2015-Jul-26 22:34N 39°44' W 075°30'7 7.4
2015-Jul-26 21:34N 39°49' W 075°24'8 8.4
2015-Jul-26 20:33N 39°52' W 075°13'8 8.3
2015-Jul-26 19:34N 39°58' W 075°07'0 0.3
2015-Jul-26 18:33N 39°58' W 075°07'0 0.0
2015-Jul-26 17:33N 39°58' W 075°07'1 1.1
2015-Jul-26 16:32N 39°59' W 075°05'0 0.0
2015-Jul-26 15:32N 39°59' W 075°05'0 0.0
2015-Jul-26 14:32N 39°59' W 075°05'0 0.0
2015-Jul-26 13:32N 39°59' W 075°05'0 0.0
2015-Jul-26 12:32N 39°59' W 075°05'0 0.0
2015-Jul-26 11:32N 39°59' W 075°05'0 0.0
2015-Jul-26 10:32N 39°59' W 075°05'0 0.0
2015-Jul-26 09:32N 39°59' W 075°05'0 0.0
2015-Jul-26 08:32N 39°59' W 075°05'0 0.0
2015-Jul-26 07:32N 39°59' W 075°05'0 0.0
2015-Jul-26 06:32N 39°59' W 075°05'0 0.0
2015-Jul-26 05:29N 39°59' W 075°05'0 0.0
2015-Jul-26 04:32N 39°59' W 075°05'0 0.0
2015-Jul-26 03:29N 39°59' W 075°05'0 0.0
2015-Jul-26 02:32N 39°59' W 075°05'0 0.0
2015-Jul-26 01:32N 39°59' W 075°05'0 0.0
2015-Jul-26 00:32N 39°59' W 075°05'0 0.0
2015-Jul-25 23:32N 39°59' W 075°05'0 0.0
2015-Jul-25 22:33N 39°59' W 075°05'1 1.1
2015-Jul-25 21:33N 39°58' W 075°07'0 0.0
2015-Jul-25 20:33N 39°58' W 075°07'2 2.3
2015-Jul-25 19:33N 39°56' W 075°08'7 6.7
2015-Jul-25 18:33N 39°51' W 075°14'7 7.4
2015-Jul-25 17:33N 39°49' W 075°24'7 7.4
2015-Jul-25 16:33N 39°44' W 075°30'7 7.2
2015-Jul-25 15:33N 39°37' W 075°35'7 6.8
2015-Jul-25 14:33N 39°30' W 075°33'7 6.8
2015-Jul-25 13:33N 39°24' W 075°30'8 7.6
2015-Jul-25 12:33N 39°19' W 075°23'8 8.3
2015-Jul-25 11:34N 39°12' W 075°17'9 8.8
2015-Jul-25 10:33N 39°05' W 075°11'9 8.9
2015-Jul-25 09:33N 38°56' W 075°06'9 9.1
2015-Jul-25 08:33N 38°48' W 075°02'10 9.5
2015-Jul-25 07:33N 38°41' W 074°53'  
2015-Jul-22 18:00N 29°00' W 071°12'229 9.9 200 / 151014.0 5.4 0.528.9
2015-Jul-21 19:00N 25°30' W 069°30'   140 / 101014.0 5.4 0.533.9
Track history (hours):
 
Tides and Currents Weather Stations Pressure Air Temp Water Temp Dewpoint Dewpoint Depression Visibility Wind Speed Wind Dir Waves Ship Positions

Patriarch

Owner: CROWLEY PUERTO RICO SERVICES INC, Seattle, WA. More information available from US FCC via Universal Licensing System and Coast Guard Vessel Documentation Center.

Last reported at 2015-Jul-27 08:10 UTC. Time now 2015-Jul-31 01:01 UTC.
Position N 38°27' W 074°43'.

Length 46 m; draft 5 m.

Type: Towing. MMSI: 366766940.

Date/timePositionNaut miles runAvg speedWind from/ knotsBaromVisibWave heightAir tempDewpointWater temp
2015-Jul-27 08:10N 38°27' W 074°43'6 9.6
2015-Jul-27 07:33N 38°31' W 074°48'10 9.7
2015-Jul-27 06:33N 38°39' W 074°55'1010.0
2015-Jul-27 05:33N 38°47' W 075°03'9 9.5
2015-Jul-27 04:33N 38°56' W 075°06'1110.4
2015-Jul-27 03:32N 39°06' W 075°12'1110.9
2015-Jul-27 02:33N 39°15' W 075°19'1010.3
2015-Jul-27 01:34N 39°22' W 075°28'8 8.4
2015-Jul-27 00:33N 39°30' W 075°34'8 7.5
2015-Jul-26 23:33N 39°37' W 075°35'7 7.3
2015-Jul-26 22:34N 39°44' W 075°30'7 7.4
2015-Jul-26 21:34N 39°49' W 075°24'8 8.4
2015-Jul-26 20:33N 39°52' W 075°13'8 8.3
2015-Jul-26 19:34N 39°58' W 075°07'0 0.3
2015-Jul-26 18:33N 39°58' W 075°07'0 0.0
2015-Jul-26 17:33N 39°58' W 075°07'1 1.1
2015-Jul-26 16:32N 39°59' W 075°05'0 0.0
2015-Jul-26 15:32N 39°59' W 075°05'0 0.0
2015-Jul-26 14:32N 39°59' W 075°05'0 0.0
2015-Jul-26 13:32N 39°59' W 075°05'0 0.0
2015-Jul-26 12:32N 39°59' W 075°05'0 0.0
2015-Jul-26 11:32N 39°59' W 075°05'0 0.0
2015-Jul-26 10:32N 39°59' W 075°05'0 0.0
2015-Jul-26 09:32N 39°59' W 075°05'0 0.0
2015-Jul-26 08:32N 39°59' W 075°05'0 0.0
2015-Jul-26 07:32N 39°59' W 075°05'0 0.0
2015-Jul-26 06:32N 39°59' W 075°05'0 0.0
2015-Jul-26 05:29N 39°59' W 075°05'0 0.0
2015-Jul-26 04:32N 39°59' W 075°05'0 0.0
2015-Jul-26 03:29N 39°59' W 075°05'0 0.0
2015-Jul-26 02:32N 39°59' W 075°05'0 0.0
2015-Jul-26 01:32N 39°59' W 075°05'0 0.0
2015-Jul-26 00:32N 39°59' W 075°05'0 0.0
2015-Jul-25 23:32N 39°59' W 075°05'0 0.0
2015-Jul-25 22:33N 39°59' W 075°05'1 1.1
2015-Jul-25 21:33N 39°58' W 075°07'0 0.0
2015-Jul-25 20:33N 39°58' W 075°07'2 2.3
2015-Jul-25 19:33N 39°56' W 075°08'7 6.7
2015-Jul-25 18:33N 39°51' W 075°14'7 7.4
2015-Jul-25 17:33N 39°49' W 075°24'7 7.4
2015-Jul-25 16:33N 39°44' W 075°30'7 7.2
2015-Jul-25 15:33N 39°37' W 075°35'7 6.8
2015-Jul-25 14:33N 39°30' W 075°33'7 6.8
2015-Jul-25 13:33N 39°24' W 075°30'8 7.6
2015-Jul-25 12:33N 39°19' W 075°23'8 8.3
2015-Jul-25 11:34N 39°12' W 075°17'9 8.8
2015-Jul-25 10:33N 39°05' W 075°11'9 8.9
2015-Jul-25 09:33N 38°56' W 075°06'9 9.1
2015-Jul-25 08:33N 38°48' W 075°02'10 9.5
2015-Jul-25 07:33N 38°41' W 074°53'  
2015-Jul-22 18:00N 29°00' W 071°12'229 9.9 200 / 151014.0 5.4 0.528.9
2015-Jul-21 19:00N 25°30' W 069°30'   140 / 101014.0 5.4 0.533.9

Dump ship's entire track history